sensor_id;sensor_type;location;lat;lon;timestamp;temperature;humidity
983;DHT22;480;48.124;11.578;2023-02-28T00:01:53;-1.50;99.90
983;DHT22;480;48.124;11.578;2023-02-28T00:04:22;-1.60;99.90
983;DHT22;480;48.124;11.578;2023-02-28T00:06:49;-1.50;99.90
983;DHT22;480;48.124;11.578;2023-02-28T00:09:20;-1.60;99.90
983;DHT22;480;48.124;11.578;2023-02-28T00:11:48;-1.70;99.90
983;DHT22;480;48.124;11.578;2023-02-28T00:14:19;-1.70;99.90
983;DHT22;480;48.124;11.578;2023-02-28T00:16:55;-1.80;99.90
983;DHT22;480;48.124;11.578;2023-02-28T00:19:48;-1.80;99.90
983;DHT22;480;48.124;11.578;2023-02-28T00:22:30;-1.80;99.90
983;DHT22;480;48.124;11.578;2023-02-28T00:24:57;-1.60;99.90
983;DHT22;480;48.124;11.578;2023-02-28T00:27:29;-1.70;99.90
983;DHT22;480;48.124;11.578;2023-02-28T00:29:57;-1.80;99.90
983;DHT22;480;48.124;11.578;2023-02-28T00:32:28;-1.80;99.90
983;DHT22;480;48.124;11.578;2023-02-28T00:34:57;-1.70;99.90
983;DHT22;480;48.124;11.578;2023-02-28T00:37:27;-1.80;99.90
983;DHT22;480;48.124;11.578;2023-02-28T00:39:56;-1.70;99.90
983;DHT22;480;48.124;11.578;2023-02-28T00:42:37;-1.70;99.90
983;DHT22;480;48.124;11.578;2023-02-28T00:45:05;-1.70;99.90
983;DHT22;480;48.124;11.578;2023-02-28T00:47:35;-1.70;99.90
983;DHT22;480;48.124;11.578;2023-02-28T00:50:05;-1.80;99.90
983;DHT22;480;48.124;11.578;2023-02-28T00:57:37;-1.60;99.90
983;DHT22;480;48.124;11.578;2023-02-28T01:00:08;-1.60;99.90
983;DHT22;480;48.124;11.578;2023-02-28T01:02:35;-1.70;99.90
983;DHT22;480;48.124;11.578;2023-02-28T01:05:05;-1.50;99.90
983;DHT22;480;48.124;11.578;2023-02-28T01:07:33;-1.50;99.90
983;DHT22;480;48.124;11.578;2023-02-28T01:10:00;-1.60;99.90
983;DHT22;480;48.124;11.578;2023-02-28T01:12:27;-1.50;99.90
983;DHT22;480;48.124;11.578;2023-02-28T01:14:54;-1.60;99.90
983;DHT22;480;48.124;11.578;2023-02-28T01:17:22;-1.40;99.90
983;DHT22;480;48.124;11.578;2023-02-28T01:19:49;-1.60;99.90
983;DHT22;480;48.124;11.578;2023-02-28T01:22:22;-1.70;99.90
983;DHT22;480;48.124;11.578;2023-02-28T01:24:50;-1.70;99.90
983;DHT22;480;48.124;11.578;2023-02-28T01:27:20;-1.70;99.90
983;DHT22;480;48.124;11.578;2023-02-28T01:29:48;-1.60;99.90
983;DHT22;480;48.124;11.578;2023-02-28T01:32:15;-1.60;99.90
983;DHT22;480;48.124;11.578;2023-02-28T01:34:42;-1.70;99.90
983;DHT22;480;48.124;11.578;2023-02-28T01:37:10;-1.70;99.90
983;DHT22;480;48.124;11.578;2023-02-28T01:39:39;-1.60;99.90
983;DHT22;480;48.124;11.578;2023-02-28T01:42:09;-1.70;99.90
983;DHT22;480;48.124;11.578;2023-02-28T01:44:57;-1.90;99.90
983;DHT22;480;48.124;11.578;2023-02-28T01:47:28;-1.90;99.90
983;DHT22;480;48.124;11.578;2023-02-28T01:49:57;-1.90;99.90
983;DHT22;480;48.124;11.578;2023-02-28T01:52:25;-1.90;99.90
983;DHT22;480;48.124;11.578;2023-02-28T01:54:56;-2.00;99.90
983;DHT22;480;48.124;11.578;2023-02-28T01:57:29;-1.90;99.90
983;DHT22;480;48.124;11.578;2023-02-28T02:00:05;-1.90;99.90
983;DHT22;480;48.124;11.578;2023-02-28T02:02:36;-2.00;99.90
983;DHT22;480;48.124;11.578;2023-02-28T02:05:07;-1.80;99.90
983;DHT22;480;48.124;11.578;2023-02-28T02:07:37;-1.90;99.90
983;DHT22;480;48.124;11.578;2023-02-28T02:10:11;-1.80;99.90
983;DHT22;480;48.124;11.578;2023-02-28T02:13:05;-1.90;99.90
983;DHT22;480;48.124;11.578;2023-02-28T02:15:40;-1.90;99.90
983;DHT22;480;48.124;11.578;2023-02-28T02:18:16;-1.80;99.90
983;DHT22;480;48.124;11.578;2023-02-28T02:21:16;-1.80;99.90
983;DHT22;480;48.124;11.578;2023-02-28T02:27:23;-1.70;99.90
983;DHT22;480;48.124;11.578;2023-02-28T02:30:21;-1.90;99.90
983;DHT22;480;48.124;11.578;2023-02-28T02:36:00;-1.90;99.90
983;DHT22;480;48.124;11.578;2023-02-28T02:38:33;-2.00;99.90
983;DHT22;480;48.124;11.578;2023-02-28T02:41:08;-1.80;99.90
983;DHT22;480;48.124;11.578;2023-02-28T02:43:43;-1.90;99.90
983;DHT22;480;48.124;11.578;2023-02-28T02:46:16;-1.90;99.90
983;DHT22;480;48.124;11.578;2023-02-28T02:48:46;-1.80;99.90
983;DHT22;480;48.124;11.578;2023-02-28T02:51:17;-1.70;99.90
983;DHT22;480;48.124;11.578;2023-02-28T02:53:48;-2.00;99.90
983;DHT22;480;48.124;11.578;2023-02-28T02:56:18;-2.00;99.90
983;DHT22;480;48.124;11.578;2023-02-28T02:58:47;-2.00;99.90
983;DHT22;480;48.124;11.578;2023-02-28T03:01:19;-2.00;99.90
983;DHT22;480;48.124;11.578;2023-02-28T03:03:56;-2.10;99.90
983;DHT22;480;48.124;11.578;2023-02-28T03:06:25;-2.10;99.90
983;DHT22;480;48.124;11.578;2023-02-28T03:08:52;-2.10;99.90
983;DHT22;480;48.124;11.578;2023-02-28T03:11:20;-2.00;99.90
983;DHT22;480;48.124;11.578;2023-02-28T03:13:58;-2.00;99.90
983;DHT22;480;48.124;11.578;2023-02-28T03:16:35;-1.90;99.90
983;DHT22;480;48.124;11.578;2023-02-28T03:19:15;-1.90;99.90
983;DHT22;480;48.124;11.578;2023-02-28T03:21:56;-2.30;99.90
983;DHT22;480;48.124;11.578;2023-02-28T03:24:29;-2.20;99.90
983;DHT22;480;48.124;11.578;2023-02-28T03:27:06;-2.30;99.90
983;DHT22;480;48.124;11.578;2023-02-28T03:29:36;-2.30;99.90
983;DHT22;480;48.124;11.578;2023-02-28T03:32:10;-2.40;99.90
983;DHT22;480;48.124;11.578;2023-02-28T03:34:43;-2.40;99.90
983;DHT22;480;48.124;11.578;2023-02-28T03:37:19;-2.40;99.90
983;DHT22;480;48.124;11.578;2023-02-28T03:39:53;-2.50;99.90
983;DHT22;480;48.124;11.578;2023-02-28T03:42:24;-2.40;99.90
983;DHT22;480;48.124;11.578;2023-02-28T03:44:55;-2.30;99.90
983;DHT22;480;48.124;11.578;2023-02-28T03:47:29;-2.20;99.90
983;DHT22;480;48.124;11.578;2023-02-28T03:50:00;-2.10;99.90
983;DHT22;480;48.124;11.578;2023-02-28T03:52:34;-2.10;99.90
983;DHT22;480;48.124;11.578;2023-02-28T03:55:06;-2.00;99.90
983;DHT22;480;48.124;11.578;2023-02-28T03:57:38;-2.10;99.90
983;DHT22;480;48.124;11.578;2023-02-28T04:00:10;-2.20;99.90
983;DHT22;480;48.124;11.578;2023-02-28T04:02:39;-2.20;99.90
983;DHT22;480;48.124;11.578;2023-02-28T04:05:07;-2.30;99.90
983;DHT22;480;48.124;11.578;2023-02-28T04:07:36;-2.30;99.90
983;DHT22;480;48.124;11.578;2023-02-28T04:10:04;-2.30;99.90
983;DHT22;480;48.124;11.578;2023-02-28T04:12:31;-2.20;99.90
983;DHT22;480;48.124;11.578;2023-02-28T04:14:58;-2.30;99.90
983;DHT22;480;48.124;11.578;2023-02-28T04:17:26;-2.40;99.90
983;DHT22;480;48.124;11.578;2023-02-28T04:19:53;-2.40;99.90
983;DHT22;480;48.124;11.578;2023-02-28T04:22:22;-2.40;99.90
983;DHT22;480;48.124;11.578;2023-02-28T04:24:52;-2.40;99.90
983;DHT22;480;48.124;11.578;2023-02-28T04:27:20;-2.30;99.90
983;DHT22;480;48.124;11.578;2023-02-28T04:29:47;-2.30;99.90
983;DHT22;480;48.124;11.578;2023-02-28T04:32:14;-2.40;99.90
983;DHT22;480;48.124;11.578;2023-02-28T04:34:41;-2.30;99.90
983;DHT22;480;48.124;11.578;2023-02-28T04:37:08;-2.30;99.90
983;DHT22;480;48.124;11.578;2023-02-28T04:39:36;-2.40;99.90
983;DHT22;480;48.124;11.578;2023-02-28T04:42:05;-2.40;99.90
983;DHT22;480;48.124;11.578;2023-02-28T04:44:32;-2.30;99.90
983;DHT22;480;48.124;11.578;2023-02-28T04:46:59;-2.30;99.90
983;DHT22;480;48.124;11.578;2023-02-28T04:49:26;-2.20;99.90
983;DHT22;480;48.124;11.578;2023-02-28T04:51:53;-2.20;99.90
983;DHT22;480;48.124;11.578;2023-02-28T04:54:21;-2.10;99.90
983;DHT22;480;48.124;11.578;2023-02-28T04:56:48;-2.10;99.90
983;DHT22;480;48.124;11.578;2023-02-28T04:59:17;-2.00;99.90
983;DHT22;480;48.124;11.578;2023-02-28T05:01:46;-2.00;99.90
983;DHT22;480;48.124;11.578;2023-02-28T05:04:14;-2.00;99.90
983;DHT22;480;48.124;11.578;2023-02-28T05:06:42;-1.90;99.90
983;DHT22;480;48.124;11.578;2023-02-28T05:09:11;-1.80;99.90
983;DHT22;480;48.124;11.578;2023-02-28T05:11:41;-1.80;99.90
983;DHT22;480;48.124;11.578;2023-02-28T05:14:11;-1.70;99.90
983;DHT22;480;48.124;11.578;2023-02-28T05:16:41;-1.60;99.90
983;DHT22;480;48.124;11.578;2023-02-28T05:19:08;-1.70;99.90
983;DHT22;480;48.124;11.578;2023-02-28T05:21:37;-1.70;99.90
983;DHT22;480;48.124;11.578;2023-02-28T05:24:08;-1.80;99.90
983;DHT22;480;48.124;11.578;2023-02-28T05:26:37;-1.90;99.90
983;DHT22;480;48.124;11.578;2023-02-28T05:29:08;-1.90;99.90
983;DHT22;480;48.124;11.578;2023-02-28T05:31:36;-1.80;99.90
983;DHT22;480;48.124;11.578;2023-02-28T05:34:05;-1.90;99.90
983;DHT22;480;48.124;11.578;2023-02-28T05:36:32;-1.90;99.90
983;DHT22;480;48.124;11.578;2023-02-28T05:39:00;-1.80;99.90
983;DHT22;480;48.124;11.578;2023-02-28T05:41:27;-1.90;99.90
983;DHT22;480;48.124;11.578;2023-02-28T05:43:54;-1.80;99.90
983;DHT22;480;48.124;11.578;2023-02-28T05:46:22;-1.90;99.90
983;DHT22;480;48.124;11.578;2023-02-28T05:48:49;-1.90;99.90
983;DHT22;480;48.124;11.578;2023-02-28T05:51:18;-2.00;99.90
983;DHT22;480;48.124;11.578;2023-02-28T05:53:46;-2.00;99.90
983;DHT22;480;48.124;11.578;2023-02-28T05:56:14;-2.00;99.90
983;DHT22;480;48.124;11.578;2023-02-28T05:58:44;-2.00;99.90
983;DHT22;480;48.124;11.578;2023-02-28T06:01:24;-2.10;99.90
983;DHT22;480;48.124;11.578;2023-02-28T06:03:51;-2.10;99.90
983;DHT22;480;48.124;11.578;2023-02-28T06:06:20;-2.20;99.90
983;DHT22;480;48.124;11.578;2023-02-28T06:08:47;-2.10;99.90
983;DHT22;480;48.124;11.578;2023-02-28T06:11:14;-2.10;99.90
983;DHT22;480;48.124;11.578;2023-02-28T06:13:42;-2.00;99.90
983;DHT22;480;48.124;11.578;2023-02-28T06:16:10;-2.00;99.90
983;DHT22;480;48.124;11.578;2023-02-28T06:18:41;-2.10;99.90
983;DHT22;480;48.124;11.578;2023-02-28T06:21:08;-2.10;99.90
983;DHT22;480;48.124;11.578;2023-02-28T06:23:38;-2.20;99.90
983;DHT22;480;48.124;11.578;2023-02-28T06:26:06;-2.10;99.90
983;DHT22;480;48.124;11.578;2023-02-28T06:28:39;-2.20;99.90
983;DHT22;480;48.124;11.578;2023-02-28T06:31:18;-2.20;99.90
983;DHT22;480;48.124;11.578;2023-02-28T06:34:29;-2.40;99.90
983;DHT22;480;48.124;11.578;2023-02-28T06:37:03;-2.30;99.90
983;DHT22;480;48.124;11.578;2023-02-28T06:39:33;-2.30;99.90
983;DHT22;480;48.124;11.578;2023-02-28T06:42:00;-2.20;99.90
983;DHT22;480;48.124;11.578;2023-02-28T06:44:27;-2.10;99.90
983;DHT22;480;48.124;11.578;2023-02-28T06:47:01;-2.10;99.90
983;DHT22;480;48.124;11.578;2023-02-28T06:49:32;-2.10;99.90
983;DHT22;480;48.124;11.578;2023-02-28T06:52:02;-2.10;99.90
983;DHT22;480;48.124;11.578;2023-02-28T06:58:10;-2.40;99.90
983;DHT22;480;48.124;11.578;2023-02-28T07:00:41;-2.30;99.90
983;DHT22;480;48.124;11.578;2023-02-28T07:03:10;-2.20;99.90
983;DHT22;480;48.124;11.578;2023-02-28T07:06:05;-2.10;99.90
983;DHT22;480;48.124;11.578;2023-02-28T07:08:43;-2.20;99.90
983;DHT22;480;48.124;11.578;2023-02-28T07:11:12;-2.00;99.90
983;DHT22;480;48.124;11.578;2023-02-28T07:13:41;-2.00;99.90
983;DHT22;480;48.124;11.578;2023-02-28T07:16:13;-1.80;99.90
983;DHT22;480;48.124;11.578;2023-02-28T07:18:41;-2.10;99.90
983;DHT22;480;48.124;11.578;2023-02-28T07:21:10;-2.00;99.90
983;DHT22;480;48.124;11.578;2023-02-28T07:23:40;-1.90;99.90
983;DHT22;480;48.124;11.578;2023-02-28T07:26:20;-2.00;99.90
983;DHT22;480;48.124;11.578;2023-02-28T07:28:49;-2.00;99.90
983;DHT22;480;48.124;11.578;2023-02-28T07:31:18;-1.90;99.90
983;DHT22;480;48.124;11.578;2023-02-28T07:33:48;-1.90;99.90
983;DHT22;480;48.124;11.578;2023-02-28T07:36:17;-1.80;99.90
983;DHT22;480;48.124;11.578;2023-02-28T07:38:53;-1.90;99.90
983;DHT22;480;48.124;11.578;2023-02-28T07:41:27;-2.10;99.90
983;DHT22;480;48.124;11.578;2023-02-28T07:44:48;-2.10;99.90
983;DHT22;480;48.124;11.578;2023-02-28T07:47:22;-2.00;99.90
983;DHT22;480;48.124;11.578;2023-02-28T07:50:00;-2.10;99.90
983;DHT22;480;48.124;11.578;2023-02-28T07:52:30;-2.10;99.90
983;DHT22;480;48.124;11.578;2023-02-28T07:54:58;-2.10;99.90
983;DHT22;480;48.124;11.578;2023-02-28T07:57:25;-2.10;99.90
983;DHT22;480;48.124;11.578;2023-02-28T07:59:55;-2.00;99.90
983;DHT22;480;48.124;11.578;2023-02-28T08:02:23;-2.00;99.90
983;DHT22;480;48.124;11.578;2023-02-28T08:04:56;-2.00;99.90
983;DHT22;480;48.124;11.578;2023-02-28T08:07:24;-2.10;99.90
983;DHT22;480;48.124;11.578;2023-02-28T08:09:54;-2.00;99.90
983;DHT22;480;48.124;11.578;2023-02-28T08:12:21;-1.70;99.90
983;DHT22;480;48.124;11.578;2023-02-28T08:14:49;-1.60;99.90
983;DHT22;480;48.124;11.578;2023-02-28T08:17:18;-1.60;99.90
983;DHT22;480;48.124;11.578;2023-02-28T08:19:47;-1.50;99.90
983;DHT22;480;48.124;11.578;2023-02-28T08:22:15;-1.40;99.90
983;DHT22;480;48.124;11.578;2023-02-28T08:24:43;-1.50;99.90
983;DHT22;480;48.124;11.578;2023-02-28T08:27:10;-1.50;99.90
983;DHT22;480;48.124;11.578;2023-02-28T08:29:39;-1.50;99.90
983;DHT22;480;48.124;11.578;2023-02-28T08:32:06;-1.40;99.90
983;DHT22;480;48.124;11.578;2023-02-28T08:34:35;-1.40;99.90
983;DHT22;480;48.124;11.578;2023-02-28T08:37:03;-1.30;99.90
983;DHT22;480;48.124;11.578;2023-02-28T08:39:30;-1.30;99.90
983;DHT22;480;48.124;11.578;2023-02-28T08:41:57;-1.60;99.90
983;DHT22;480;48.124;11.578;2023-02-28T08:44:24;-1.60;99.90
983;DHT22;480;48.124;11.578;2023-02-28T08:46:52;-1.50;99.90
983;DHT22;480;48.124;11.578;2023-02-28T08:49:20;-1.30;99.90
983;DHT22;480;48.124;11.578;2023-02-28T08:51:48;-1.20;99.90
983;DHT22;480;48.124;11.578;2023-02-28T08:54:16;-1.40;99.90
983;DHT22;480;48.124;11.578;2023-02-28T08:56:45;-1.20;99.90
983;DHT22;480;48.124;11.578;2023-02-28T08:59:15;-1.20;99.90
983;DHT22;480;48.124;11.578;2023-02-28T09:01:42;-1.20;99.90
983;DHT22;480;48.124;11.578;2023-02-28T09:04:10;-1.40;99.90
983;DHT22;480;48.124;11.578;2023-02-28T09:06:37;-1.30;99.90
983;DHT22;480;48.124;11.578;2023-02-28T09:09:06;-1.30;99.90
983;DHT22;480;48.124;11.578;2023-02-28T09:11:35;-1.40;99.90
983;DHT22;480;48.124;11.578;2023-02-28T09:14:02;-1.30;99.90
983;DHT22;480;48.124;11.578;2023-02-28T09:16:31;-1.50;99.90
983;DHT22;480;48.124;11.578;2023-02-28T09:18:58;-1.50;99.90
983;DHT22;480;48.124;11.578;2023-02-28T09:21:26;-1.40;99.90
983;DHT22;480;48.124;11.578;2023-02-28T09:23:53;-1.50;99.90
983;DHT22;480;48.124;11.578;2023-02-28T09:26:24;-1.40;99.90
983;DHT22;480;48.124;11.578;2023-02-28T09:28:52;-1.40;99.90
983;DHT22;480;48.124;11.578;2023-02-28T09:31:23;-1.30;99.90
983;DHT22;480;48.124;11.578;2023-02-28T09:33:52;-1.20;99.90
983;DHT22;480;48.124;11.578;2023-02-28T09:36:19;-1.30;99.90
983;DHT22;480;48.124;11.578;2023-02-28T09:38:46;-1.20;99.90
983;DHT22;480;48.124;11.578;2023-02-28T09:41:17;-1.20;99.90
983;DHT22;480;48.124;11.578;2023-02-28T09:43:49;-1.10;99.90
983;DHT22;480;48.124;11.578;2023-02-28T09:46:27;-1.00;99.90
983;DHT22;480;48.124;11.578;2023-02-28T09:48:56;-0.90;99.90
983;DHT22;480;48.124;11.578;2023-02-28T09:51:37;-0.60;99.90
983;DHT22;480;48.124;11.578;2023-02-28T09:54:11;-0.60;99.90
983;DHT22;480;48.124;11.578;2023-02-28T09:56:43;-0.90;99.90
983;DHT22;480;48.124;11.578;2023-02-28T09:59:19;-1.10;99.90
983;DHT22;480;48.124;11.578;2023-02-28T10:01:53;-1.10;99.90
983;DHT22;480;48.124;11.578;2023-02-28T10:04:41;-1.10;99.90
983;DHT22;480;48.124;11.578;2023-02-28T10:07:21;-1.10;99.90
983;DHT22;480;48.124;11.578;2023-02-28T10:09:53;-1.20;99.90
983;DHT22;480;48.124;11.578;2023-02-28T10:12:21;-1.30;99.90
983;DHT22;480;48.124;11.578;2023-02-28T10:14:52;-1.30;99.90
983;DHT22;480;48.124;11.578;2023-02-28T10:17:23;-1.40;99.90
983;DHT22;480;48.124;11.578;2023-02-28T10:19:58;-1.20;99.90
983;DHT22;480;48.124;11.578;2023-02-28T10:22:29;-0.80;99.90
983;DHT22;480;48.124;11.578;2023-02-28T10:24:59;-0.60;99.90
983;DHT22;480;48.124;11.578;2023-02-28T10:27:30;-0.60;99.90
983;DHT22;480;48.124;11.578;2023-02-28T10:30:02;-0.50;99.90
983;DHT22;480;48.124;11.578;2023-02-28T10:32:31;-0.60;99.90
983;DHT22;480;48.124;11.578;2023-02-28T10:35:06;-0.70;99.90
983;DHT22;480;48.124;11.578;2023-02-28T10:37:34;-0.70;99.90
983;DHT22;480;48.124;11.578;2023-02-28T10:40:05;-0.90;99.90
983;DHT22;480;48.124;11.578;2023-02-28T10:42:34;-0.90;99.90
983;DHT22;480;48.124;11.578;2023-02-28T10:45:13;-0.70;99.90
983;DHT22;480;48.124;11.578;2023-02-28T10:47:51;-0.70;99.90
983;DHT22;480;48.124;11.578;2023-02-28T10:50:35;-0.50;99.90
983;DHT22;480;48.124;11.578;2023-02-28T10:53:28;-0.50;99.90
983;DHT22;480;48.124;11.578;2023-02-28T10:55:59;-0.40;99.90
983;DHT22;480;48.124;11.578;2023-02-28T10:58:28;-0.50;99.90
983;DHT22;480;48.124;11.578;2023-02-28T11:00:57;-0.60;99.90
983;DHT22;480;48.124;11.578;2023-02-28T11:03:30;-0.50;99.90
983;DHT22;480;48.124;11.578;2023-02-28T11:06:03;-0.40;99.90
983;DHT22;480;48.124;11.578;2023-02-28T11:08:30;-0.20;99.90
983;DHT22;480;48.124;11.578;2023-02-28T11:11:03;0.00;99.90
983;DHT22;480;48.124;11.578;2023-02-28T11:13:33;0.00;99.90
983;DHT22;480;48.124;11.578;2023-02-28T11:16:06;0.00;99.90
983;DHT22;480;48.124;11.578;2023-02-28T11:18:40;-0.20;99.90
983;DHT22;480;48.124;11.578;2023-02-28T11:21:08;-0.10;99.90
983;DHT22;480;48.124;11.578;2023-02-28T11:23:40;0.00;99.90
983;DHT22;480;48.124;11.578;2023-02-28T11:26:08;0.00;99.90
983;DHT22;480;48.124;11.578;2023-02-28T11:28:38;0.30;99.90
983;DHT22;480;48.124;11.578;2023-02-28T11:31:16;0.30;99.90
983;DHT22;480;48.124;11.578;2023-02-28T11:33:46;0.70;99.90
983;DHT22;480;48.124;11.578;2023-02-28T11:36:19;0.80;99.90
983;DHT22;480;48.124;11.578;2023-02-28T11:38:50;0.70;99.90
983;DHT22;480;48.124;11.578;2023-02-28T11:41:34;0.70;99.90
983;DHT22;480;48.124;11.578;2023-02-28T11:44:22;0.60;99.90
983;DHT22;480;48.124;11.578;2023-02-28T11:46:54;0.80;99.90
983;DHT22;480;48.124;11.578;2023-02-28T11:49:30;1.10;99.90
983;DHT22;480;48.124;11.578;2023-02-28T11:52:01;1.20;99.90
983;DHT22;480;48.124;11.578;2023-02-28T11:54:50;1.40;99.90
983;DHT22;480;48.124;11.578;2023-02-28T11:57:44;0.90;99.90
983;DHT22;480;48.124;11.578;2023-02-28T12:00:29;1.00;99.90
983;DHT22;480;48.124;11.578;2023-02-28T12:03:09;1.00;99.90
983;DHT22;480;48.124;11.578;2023-02-28T12:05:43;1.00;99.90
983;DHT22;480;48.124;11.578;2023-02-28T12:08:22;1.10;99.90
983;DHT22;480;48.124;11.578;2023-02-28T12:11:00;1.60;99.90
983;DHT22;480;48.124;11.578;2023-02-28T12:13:40;1.70;99.90
983;DHT22;480;48.124;11.578;2023-02-28T12:16:30;1.60;99.90
983;DHT22;480;48.124;11.578;2023-02-28T12:19:13;1.80;99.90
983;DHT22;480;48.124;11.578;2023-02-28T12:22:02;2.10;99.90
983;DHT22;480;48.124;11.578;2023-02-28T12:24:54;1.80;99.90
983;DHT22;480;48.124;11.578;2023-02-28T12:27:25;1.80;99.90
983;DHT22;480;48.124;11.578;2023-02-28T12:29:58;2.00;99.90
983;DHT22;480;48.124;11.578;2023-02-28T12:32:30;1.90;99.90
983;DHT22;480;48.124;11.578;2023-02-28T12:35:03;1.60;99.90
983;DHT22;480;48.124;11.578;2023-02-28T12:37:34;1.90;99.90
983;DHT22;480;48.124;11.578;2023-02-28T12:40:07;1.90;99.90
983;DHT22;480;48.124;11.578;2023-02-28T12:42:40;2.20;99.90
983;DHT22;480;48.124;11.578;2023-02-28T12:45:11;2.40;99.90
983;DHT22;480;48.124;11.578;2023-02-28T12:47:42;2.60;99.90
983;DHT22;480;48.124;11.578;2023-02-28T12:50:13;2.80;99.90
983;DHT22;480;48.124;11.578;2023-02-28T12:52:52;2.80;99.90
983;DHT22;480;48.124;11.578;2023-02-28T12:55:26;2.70;99.90
983;DHT22;480;48.124;11.578;2023-02-28T12:58:05;2.60;99.90
983;DHT22;480;48.124;11.578;2023-02-28T13:00:36;2.20;99.90
983;DHT22;480;48.124;11.578;2023-02-28T13:03:51;2.00;99.90
983;DHT22;480;48.124;11.578;2023-02-28T13:06:43;2.20;99.90
983;DHT22;480;48.124;11.578;2023-02-28T13:09:13;2.10;99.90
983;DHT22;480;48.124;11.578;2023-02-28T13:11:44;2.10;99.90
983;DHT22;480;48.124;11.578;2023-02-28T13:14:25;2.30;99.90
983;DHT22;480;48.124;11.578;2023-02-28T13:17:09;2.30;99.90
983;DHT22;480;48.124;11.578;2023-02-28T13:19:39;2.40;99.90
983;DHT22;480;48.124;11.578;2023-02-28T13:22:18;2.30;99.90
983;DHT22;480;48.124;11.578;2023-02-28T13:24:49;2.00;99.90
983;DHT22;480;48.124;11.578;2023-02-28T13:27:34;1.90;99.90
983;DHT22;480;48.124;11.578;2023-02-28T13:33:26;2.20;99.90
983;DHT22;480;48.124;11.578;2023-02-28T13:36:25;2.30;99.90
983;DHT22;480;48.124;11.578;2023-02-28T13:38:57;2.50;99.90
983;DHT22;480;48.124;11.578;2023-02-28T13:41:45;2.20;99.90
983;DHT22;480;48.124;11.578;2023-02-28T13:44:15;2.20;99.90
983;DHT22;480;48.124;11.578;2023-02-28T13:47:20;2.30;99.90
983;DHT22;480;48.124;11.578;2023-02-28T13:49:48;2.40;99.90
983;DHT22;480;48.124;11.578;2023-02-28T13:52:20;2.60;99.90
983;DHT22;480;48.124;11.578;2023-02-28T13:55:10;2.40;99.90
983;DHT22;480;48.124;11.578;2023-02-28T13:57:52;2.30;99.90
983;DHT22;480;48.124;11.578;2023-02-28T14:00:31;2.40;99.90
983;DHT22;480;48.124;11.578;2023-02-28T14:03:19;2.20;99.90
983;DHT22;480;48.124;11.578;2023-02-28T14:06:08;2.20;99.90
983;DHT22;480;48.124;11.578;2023-02-28T14:08:37;2.30;99.90
983;DHT22;480;48.124;11.578;2023-02-28T14:11:26;2.40;99.90
983;DHT22;480;48.124;11.578;2023-02-28T14:13:54;2.70;99.90
983;DHT22;480;48.124;11.578;2023-02-28T14:16:22;2.60;99.90
983;DHT22;480;48.124;11.578;2023-02-28T14:18:56;2.60;99.90
983;DHT22;480;48.124;11.578;2023-02-28T14:21:26;2.80;99.90
983;DHT22;480;48.124;11.578;2023-02-28T14:27:11;2.70;99.90
983;DHT22;480;48.124;11.578;2023-02-28T14:30:14;2.60;99.90
983;DHT22;480;48.124;11.578;2023-02-28T14:32:47;2.70;99.90
983;DHT22;480;48.124;11.578;2023-02-28T14:35:28;2.70;99.90
983;DHT22;480;48.124;11.578;2023-02-28T14:37:56;2.70;99.90
983;DHT22;480;48.124;11.578;2023-02-28T14:40:27;2.90;99.90
983;DHT22;480;48.124;11.578;2023-02-28T14:42:59;3.00;99.90
983;DHT22;480;48.124;11.578;2023-02-28T14:45:30;3.20;99.90
983;DHT22;480;48.124;11.578;2023-02-28T14:47:58;3.20;99.90
983;DHT22;480;48.124;11.578;2023-02-28T14:50:30;3.00;99.90
983;DHT22;480;48.124;11.578;2023-02-28T14:52:58;3.00;99.90
983;DHT22;480;48.124;11.578;2023-02-28T14:55:28;3.20;99.90
983;DHT22;480;48.124;11.578;2023-02-28T14:57:59;3.50;99.90
983;DHT22;480;48.124;11.578;2023-02-28T15:00:29;3.20;99.90
983;DHT22;480;48.124;11.578;2023-02-28T15:03:01;3.20;99.90
983;DHT22;480;48.124;11.578;2023-02-28T15:05:39;3.30;99.90
983;DHT22;480;48.124;11.578;2023-02-28T15:08:12;3.40;99.90
983;DHT22;480;48.124;11.578;2023-02-28T15:10:42;3.30;99.90
983;DHT22;480;48.124;11.578;2023-02-28T15:13:14;3.40;99.90
983;DHT22;480;48.124;11.578;2023-02-28T15:15:47;3.30;99.90
983;DHT22;480;48.124;11.578;2023-02-28T15:18:25;3.10;99.90
983;DHT22;480;48.124;11.578;2023-02-28T15:20:55;3.30;99.90
983;DHT22;480;48.124;11.578;2023-02-28T15:23:23;3.20;99.90
983;DHT22;480;48.124;11.578;2023-02-28T15:25:53;3.10;99.90
983;DHT22;480;48.124;11.578;2023-02-28T15:28:23;3.10;99.90
983;DHT22;480;48.124;11.578;2023-02-28T15:30:56;3.00;99.90
983;DHT22;480;48.124;11.578;2023-02-28T15:33:26;2.90;99.90
983;DHT22;480;48.124;11.578;2023-02-28T15:36:09;2.80;99.90
983;DHT22;480;48.124;11.578;2023-02-28T15:38:37;2.70;99.90
983;DHT22;480;48.124;11.578;2023-02-28T15:41:04;2.80;99.90
983;DHT22;480;48.124;11.578;2023-02-28T15:43:36;2.90;99.90
983;DHT22;480;48.124;11.578;2023-02-28T15:46:06;2.80;99.90
983;DHT22;480;48.124;11.578;2023-02-28T15:48:36;2.80;99.90
983;DHT22;480;48.124;11.578;2023-02-28T15:51:08;2.80;99.90
983;DHT22;480;48.124;11.578;2023-02-28T15:53:37;2.70;99.90
983;DHT22;480;48.124;11.578;2023-02-28T15:56:16;2.80;99.90
983;DHT22;480;48.124;11.578;2023-02-28T15:58:48;2.80;99.90
983;DHT22;480;48.124;11.578;2023-02-28T16:01:21;2.70;99.90
983;DHT22;480;48.124;11.578;2023-02-28T16:03:51;2.70;99.90
983;DHT22;480;48.124;11.578;2023-02-28T16:06:35;2.80;99.90
983;DHT22;480;48.124;11.578;2023-02-28T16:09:05;2.80;99.90
983;DHT22;480;48.124;11.578;2023-02-28T16:11:36;2.90;99.90
983;DHT22;480;48.124;11.578;2023-02-28T16:14:05;2.90;99.90
983;DHT22;480;48.124;11.578;2023-02-28T16:16:33;2.90;99.90
983;DHT22;480;48.124;11.578;2023-02-28T16:19:02;3.00;99.90
983;DHT22;480;48.124;11.578;2023-02-28T16:21:29;3.00;99.90
983;DHT22;480;48.124;11.578;2023-02-28T16:23:56;3.10;99.90
983;DHT22;480;48.124;11.578;2023-02-28T16:26:26;3.20;99.90
983;DHT22;480;48.124;11.578;2023-02-28T16:28:57;3.10;99.90
983;DHT22;480;48.124;11.578;2023-02-28T16:31:26;3.20;99.90
983;DHT22;480;48.124;11.578;2023-02-28T16:33:53;3.20;99.90
983;DHT22;480;48.124;11.578;2023-02-28T16:36:23;3.10;99.90
983;DHT22;480;48.124;11.578;2023-02-28T16:38:50;3.10;99.90
983;DHT22;480;48.124;11.578;2023-02-28T16:41:20;3.30;99.90
983;DHT22;480;48.124;11.578;2023-02-28T16:43:49;3.20;99.90
983;DHT22;480;48.124;11.578;2023-02-28T16:46:17;3.00;99.90
983;DHT22;480;48.124;11.578;2023-02-28T16:48:45;2.90;99.90
983;DHT22;480;48.124;11.578;2023-02-28T16:51:15;2.80;99.90
983;DHT22;480;48.124;11.578;2023-02-28T16:53:43;2.90;99.90
983;DHT22;480;48.124;11.578;2023-02-28T16:56:16;3.00;99.90
983;DHT22;480;48.124;11.578;2023-02-28T16:58:45;3.00;99.90
983;DHT22;480;48.124;11.578;2023-02-28T17:01:12;2.80;99.90
983;DHT22;480;48.124;11.578;2023-02-28T17:03:40;2.80;99.90
983;DHT22;480;48.124;11.578;2023-02-28T17:06:16;2.80;99.90
983;DHT22;480;48.124;11.578;2023-02-28T17:08:43;2.80;99.90
983;DHT22;480;48.124;11.578;2023-02-28T17:11:10;2.90;99.90
983;DHT22;480;48.124;11.578;2023-02-28T17:13:37;2.80;99.90
983;DHT22;480;48.124;11.578;2023-02-28T17:16:05;2.90;99.90
983;DHT22;480;48.124;11.578;2023-02-28T17:18:32;2.80;99.90
983;DHT22;480;48.124;11.578;2023-02-28T17:21:00;2.90;99.90